Prudentia — PB4900 — position and weather

sailwx.info

Track history (hours):
 
Tides and Currents Weather Stations Pressure Air Temp Water Temp Dewpoint Dewpoint Depression Visibility Wind Speed Wind Dir Waves Ship Positions

Prudentia

Last reported at 2015-Aug-02 19:26 UTC. Time now 2015-Aug-02 22:24 UTC.
Position N 51°51' E 005°51'.

Length 70 m; draft 1.8 m.

Type: Ship. MMSI: 244660779.

Date/timePositionNaut miles runAvg speedWind from/ knotsBaromVisibWave heightAir tempDewpointWater temp
2015-Aug-02 19:26N 51°51' E 005°51'0 0.0
2015-Aug-02 00:26N 51°51' E 005°51'0 0.0
2015-Aug-01 23:30N 51°51' E 005°51'0 0.0
2015-Aug-01 22:31N 51°51' E 005°51'0 0.0
2015-Aug-01 10:19N 51°51' E 005°51'0 0.0
2015-Aug-01 04:30N 51°51' E 005°51'0 0.0
2015-Aug-01 03:27N 51°51' E 005°51'0 0.0
2015-Aug-01 02:33N 51°51' E 005°51'2 0.1
2015-Jul-31 09:07N 51°49' E 005°49'5 0.1
2015-Jul-29 14:30N 51°44' E 005°53'14 0.5
2015-Jul-28 13:33N 51°58' E 005°56'5 4.8
2015-Jul-28 12:31N 51°58' E 005°48'  
2015-Jul-25 06:17N 51°59' E 005°15'4 5.2
2015-Jul-25 05:33N 51°59' E 005°09'1 1.1
2015-Jul-25 04:26N 51°60' E 005°08'0 0.0
2015-Jul-25 03:27N 51°60' E 005°08'0 0.0
2015-Jul-25 02:32N 51°60' E 005°08'0 0.0
2015-Jul-25 01:25N 51°60' E 005°08'0 0.0
2015-Jul-25 00:33N 51°60' E 005°08'0 0.0
2015-Jul-24 23:31N 51°60' E 005°08'0 0.0
2015-Jul-24 22:28N 51°60' E 005°08'3 3.7
2015-Jul-24 21:33N 51°59' E 005°03'7 6.8
2015-Jul-24 20:33N 51°56' E 004°52'8 8.2
2015-Jul-24 19:33N 51°53' E 004°40'7 7.0
2015-Jul-24 18:34N 51°54' E 004°29'6 6.0
2015-Jul-24 17:33N 51°52' E 004°20'6 6.0
2015-Jul-24 16:33N 51°55' E 004°11'4 3.6
2015-Jul-24 15:33N 51°57' E 004°07'0 0.0
2015-Jul-24 14:33N 51°57' E 004°07'0 0.0
2015-Jul-24 13:33N 51°57' E 004°07'0 0.0
2015-Jul-24 12:33N 51°57' E 004°07'0 0.0
2015-Jul-24 11:33N 51°57' E 004°07'6 6.1
2015-Jul-24 10:33N 51°53' E 004°14'6 6.1
2015-Jul-24 09:33N 51°54' E 004°24'4 3.6
2015-Jul-24 08:33N 51°54' E 004°29'0 0.0
2015-Jul-24 07:33N 51°54' E 004°29'0 0.0
2015-Jul-24 06:33N 51°54' E 004°29'0 0.0
2015-Jul-24 05:33N 51°54' E 004°29'0 0.0
2015-Jul-24 04:33N 51°54' E 004°29'0 0.0
2015-Jul-24 03:33N 51°54' E 004°29'0 0.0
2015-Jul-24 02:33N 51°54' E 004°29'0 0.0
2015-Jul-24 01:33N 51°54' E 004°29'0 0.0
2015-Jul-24 00:33N 51°54' E 004°29'0 0.0
2015-Jul-23 23:33N 51°54' E 004°29'0 0.0
2015-Jul-23 22:33N 51°54' E 004°29'0 0.0
2015-Jul-23 21:33N 51°54' E 004°29'0 0.0
2015-Jul-23 20:33N 51°54' E 004°29'0 0.0
2015-Jul-23 19:33N 51°54' E 004°29'  
Track history (hours):
 
Tides and Currents Weather Stations Pressure Air Temp Water Temp Dewpoint Dewpoint Depression Visibility Wind Speed Wind Dir Waves Ship Positions

Prudentia

Last reported at 2015-Aug-02 19:26 UTC. Time now 2015-Aug-02 22:24 UTC.
Position N 51°51' E 005°51'.

Length 70 m; draft 1.8 m.

Type: Ship. MMSI: 244660779.

Date/timePositionNaut miles runAvg speedWind from/ knotsBaromVisibWave heightAir tempDewpointWater temp
2015-Aug-02 19:26N 51°51' E 005°51'0 0.0
2015-Aug-02 00:26N 51°51' E 005°51'0 0.0
2015-Aug-01 23:30N 51°51' E 005°51'0 0.0
2015-Aug-01 22:31N 51°51' E 005°51'0 0.0
2015-Aug-01 10:19N 51°51' E 005°51'0 0.0
2015-Aug-01 04:30N 51°51' E 005°51'0 0.0
2015-Aug-01 03:27N 51°51' E 005°51'0 0.0
2015-Aug-01 02:33N 51°51' E 005°51'2 0.1
2015-Jul-31 09:07N 51°49' E 005°49'5 0.1
2015-Jul-29 14:30N 51°44' E 005°53'14 0.5
2015-Jul-28 13:33N 51°58' E 005°56'5 4.8
2015-Jul-28 12:31N 51°58' E 005°48'  
2015-Jul-25 06:17N 51°59' E 005°15'4 5.2
2015-Jul-25 05:33N 51°59' E 005°09'1 1.1
2015-Jul-25 04:26N 51°60' E 005°08'0 0.0
2015-Jul-25 03:27N 51°60' E 005°08'0 0.0
2015-Jul-25 02:32N 51°60' E 005°08'0 0.0
2015-Jul-25 01:25N 51°60' E 005°08'0 0.0
2015-Jul-25 00:33N 51°60' E 005°08'0 0.0
2015-Jul-24 23:31N 51°60' E 005°08'0 0.0
2015-Jul-24 22:28N 51°60' E 005°08'3 3.7
2015-Jul-24 21:33N 51°59' E 005°03'7 6.8
2015-Jul-24 20:33N 51°56' E 004°52'8 8.2
2015-Jul-24 19:33N 51°53' E 004°40'7 7.0
2015-Jul-24 18:34N 51°54' E 004°29'6 6.0
2015-Jul-24 17:33N 51°52' E 004°20'6 6.0
2015-Jul-24 16:33N 51°55' E 004°11'4 3.6
2015-Jul-24 15:33N 51°57' E 004°07'0 0.0
2015-Jul-24 14:33N 51°57' E 004°07'0 0.0
2015-Jul-24 13:33N 51°57' E 004°07'0 0.0
2015-Jul-24 12:33N 51°57' E 004°07'0 0.0
2015-Jul-24 11:33N 51°57' E 004°07'6 6.1
2015-Jul-24 10:33N 51°53' E 004°14'6 6.1
2015-Jul-24 09:33N 51°54' E 004°24'4 3.6
2015-Jul-24 08:33N 51°54' E 004°29'0 0.0
2015-Jul-24 07:33N 51°54' E 004°29'0 0.0
2015-Jul-24 06:33N 51°54' E 004°29'0 0.0
2015-Jul-24 05:33N 51°54' E 004°29'0 0.0
2015-Jul-24 04:33N 51°54' E 004°29'0 0.0
2015-Jul-24 03:33N 51°54' E 004°29'0 0.0
2015-Jul-24 02:33N 51°54' E 004°29'0 0.0
2015-Jul-24 01:33N 51°54' E 004°29'0 0.0
2015-Jul-24 00:33N 51°54' E 004°29'0 0.0
2015-Jul-23 23:33N 51°54' E 004°29'0 0.0
2015-Jul-23 22:33N 51°54' E 004°29'0 0.0
2015-Jul-23 21:33N 51°54' E 004°29'0 0.0
2015-Jul-23 20:33N 51°54' E 004°29'0 0.0
2015-Jul-23 19:33N 51°54' E 004°29'  

Dump ship's entire track history